createdAt,value
2023-06-27T00:01:29.000Z,51.31
2023-06-27T00:03:55.727Z,54.70
2023-06-27T00:06:22.386Z,52.06
2023-06-27T00:08:50.146Z,53.66
2023-06-27T00:11:18.028Z,51.84
2023-06-27T00:13:44.939Z,54.53
2023-06-27T00:16:16.662Z,51.18
2023-06-27T00:18:49.637Z,54.24
2023-06-27T00:21:17.316Z,53.67
2023-06-27T00:23:44.919Z,54.21
2023-06-27T00:26:15.115Z,54.60
2023-06-27T00:28:41.752Z,54.70
2023-06-27T00:31:08.564Z,53.64
2023-06-27T00:33:35.249Z,54.72
2023-06-27T00:36:01.925Z,53.08
2023-06-27T00:38:28.571Z,53.80
2023-06-27T00:40:55.168Z,53.54
2023-06-27T00:43:21.749Z,53.71
2023-06-27T00:45:48.432Z,50.89
2023-06-27T00:48:15.873Z,53.56
2023-06-27T00:50:44.686Z,51.19
2023-06-27T00:53:12.795Z,52.60
2023-06-27T00:55:41.013Z,51.20
2023-06-27T00:58:11.285Z,50.42
2023-06-27T01:00:38.366Z,51.41
2023-06-27T01:03:05.310Z,50.98
2023-06-27T01:05:33.146Z,50.61
2023-06-27T01:08:21.385Z,54.45
2023-06-27T01:10:54.303Z,51.90
2023-06-27T01:13:34.487Z,55.17
2023-06-27T01:16:01.836Z,52.31
2023-06-27T01:18:32.640Z,54.14
2023-06-27T01:21:00.973Z,54.62
2023-06-27T01:23:34.033Z,57.76
2023-06-27T01:26:08.441Z,56.21
2023-06-27T01:28:37.266Z,57.06
2023-06-27T01:31:04.737Z,53.88
2023-06-27T01:33:47.257Z,55.24
2023-06-27T01:36:16.484Z,58.68
2023-06-27T01:38:47.471Z,55.66
2023-06-27T01:41:19.446Z,58.33
2023-06-27T01:43:47.103Z,57.21
2023-06-27T01:46:14.495Z,56.27
2023-06-27T01:48:42.053Z,57.69
2023-06-27T01:51:10.074Z,56.57
2023-06-27T01:53:37.484Z,56.90
2023-06-27T01:56:05.096Z,56.26
2023-06-27T01:58:31.803Z,56.44
2023-06-27T02:00:58.515Z,57.58
2023-06-27T02:03:25.305Z,55.53
2023-06-27T02:05:51.973Z,57.16
2023-06-27T02:08:18.579Z,57.67
2023-06-27T02:10:45.167Z,59.35
2023-06-27T02:13:11.846Z,61.09
2023-06-27T02:15:38.620Z,58.31
2023-06-27T02:18:05.848Z,57.41
2023-06-27T02:20:32.806Z,56.44
2023-06-27T02:22:59.360Z,59.60
2023-06-27T02:25:25.977Z,61.25
2023-06-27T02:27:52.648Z,62.22
2023-06-27T02:30:19.296Z,61.17
2023-06-27T02:32:45.967Z,60.75
2023-06-27T02:35:16.253Z,60.17
2023-06-27T02:37:44.165Z,58.08
2023-06-27T02:40:11.225Z,59.39
2023-06-27T02:42:37.856Z,61.67
2023-06-27T02:45:04.837Z,57.31
2023-06-27T02:47:31.493Z,57.74
2023-06-27T02:49:58.160Z,61.91
2023-06-27T02:52:24.784Z,59.21
2023-06-27T02:54:51.511Z,59.03
2023-06-27T02:57:18.108Z,61.93
2023-06-27T02:59:44.726Z,61.06
2023-06-27T03:02:12.679Z,60.68
2023-06-27T03:04:39.782Z,61.36
2023-06-27T03:07:06.956Z,63.13
2023-06-27T03:09:34.035Z,60.57
2023-06-27T03:12:00.655Z,61.68
2023-06-27T03:14:27.409Z,61.43
2023-06-27T03:16:55.698Z,63.82
2023-06-27T03:19:30.698Z,59.13
2023-06-27T03:22:08.951Z,61.71
2023-06-27T03:24:35.548Z,60.19
2023-06-27T03:27:02.176Z,60.99
2023-06-27T03:29:28.783Z,57.81
2023-06-27T03:31:58.680Z,59.22
2023-06-27T03:34:25.707Z,62.06
2023-06-27T03:36:52.537Z,63.27
2023-06-27T03:39:19.235Z,60.19
2023-06-27T03:41:45.834Z,62.99
2023-06-27T03:44:12.504Z,61.58
2023-06-27T03:46:40.178Z,61.20
2023-06-27T03:49:06.801Z,61.40
2023-06-27T03:51:34.959Z,61.89
2023-06-27T03:54:03.652Z,61.98
2023-06-27T03:56:30.793Z,60.03
2023-06-27T03:58:57.505Z,60.33
2023-06-27T04:01:24.186Z,58.30
2023-06-27T04:03:51.345Z,58.55
2023-06-27T04:06:19.813Z,59.29
2023-06-27T04:08:46.462Z,62.36
2023-06-27T04:11:13.113Z,60.13
2023-06-27T04:13:39.683Z,57.64
2023-06-27T04:16:06.511Z,59.43
2023-06-27T04:18:33.132Z,59.33
2023-06-27T04:21:00.271Z,59.53
2023-06-27T04:23:27.261Z,58.40
2023-06-27T04:26:04.688Z,58.60
2023-06-27T04:28:35.113Z,58.16
2023-06-27T04:31:03.307Z,57.85
2023-06-27T04:33:30.562Z,56.98
2023-06-27T04:36:02.655Z,58.86
2023-06-27T04:38:38.813Z,56.85
2023-06-27T04:41:09.442Z,58.18
2023-06-27T04:43:37.685Z,57.79
2023-06-27T04:46:04.883Z,58.90
2023-06-27T04:48:31.932Z,57.80
2023-06-27T04:50:59.270Z,58.68
2023-06-27T04:53:26.981Z,57.66
2023-06-27T04:55:54.555Z,56.23
2023-06-27T04:58:21.988Z,56.18
2023-06-27T05:00:49.015Z,56.16
2023-06-27T05:03:16.345Z,54.86
2023-06-27T05:05:43.480Z,54.79
2023-06-27T05:08:11.329Z,54.12
2023-06-27T05:10:38.237Z,54.39
2023-06-27T05:13:05.136Z,53.67
2023-06-27T05:15:31.691Z,52.67
2023-06-27T05:18:07.419Z,51.17
2023-06-27T05:20:34.172Z,50.75
2023-06-27T05:23:02.369Z,50.95
2023-06-27T05:25:30.201Z,50.70
2023-06-27T05:27:57.032Z,49.87
2023-06-27T05:30:24.101Z,48.26
2023-06-27T05:32:50.981Z,50.94
2023-06-27T05:35:17.773Z,50.34
2023-06-27T05:37:44.463Z,50.13
2023-06-27T05:40:12.331Z,49.87
2023-06-27T05:42:39.279Z,49.86
2023-06-27T05:45:06.582Z,49.47
2023-06-27T05:47:33.435Z,49.76
2023-06-27T05:50:00.232Z,47.34
2023-06-27T05:52:26.982Z,45.72
2023-06-27T05:54:53.595Z,46.02
2023-06-27T05:57:20.416Z,45.36
2023-06-27T05:59:47.522Z,45.68
2023-06-27T06:02:14.504Z,48.14
2023-06-27T06:04:41.172Z,47.42
2023-06-27T06:07:07.841Z,47.01
2023-06-27T06:09:34.604Z,46.99
2023-06-27T06:12:01.247Z,41.47
2023-06-27T06:14:27.962Z,43.04
2023-06-27T06:16:54.887Z,44.85
2023-06-27T06:19:21.526Z,47.63
2023-06-27T06:21:48.132Z,41.61
2023-06-27T06:24:17.630Z,43.73
2023-06-27T06:26:44.187Z,45.38
2023-06-27T06:29:14.320Z,44.93
2023-06-27T06:31:41.958Z,43.92
2023-06-27T06:34:08.998Z,42.36
2023-06-27T06:36:35.714Z,42.86
2023-06-27T06:39:02.416Z,41.20
2023-06-27T06:41:29.023Z,42.18
2023-06-27T06:43:55.608Z,39.67
2023-06-27T06:46:22.409Z,40.40
2023-06-27T06:48:49.125Z,43.11
2023-06-27T06:51:15.852Z,42.94
2023-06-27T06:53:42.444Z,45.87
2023-06-27T06:56:09.138Z,46.43
2023-06-27T06:58:35.780Z,44.70
2023-06-27T07:01:02.462Z,43.93
2023-06-27T07:03:29.056Z,46.07
2023-06-27T07:05:55.628Z,46.64
2023-06-27T07:08:22.252Z,45.73
2023-06-27T07:10:48.982Z,46.66
2023-06-27T07:13:15.557Z,43.96
2023-06-27T07:15:42.440Z,45.34
2023-06-27T07:18:09.317Z,43.97
2023-06-27T07:20:36.443Z,42.24
2023-06-27T07:23:03.066Z,44.71
2023-06-27T07:25:30.684Z,43.65
2023-06-27T07:27:57.271Z,45.54
2023-06-27T07:30:23.840Z,44.87
2023-06-27T07:32:50.865Z,41.45
2023-06-27T07:35:17.465Z,42.29
2023-06-27T07:37:44.086Z,44.79
2023-06-27T07:40:12.292Z,44.49
2023-06-27T07:42:39.043Z,46.51
2023-06-27T07:45:06.476Z,45.30
2023-06-27T07:47:33.208Z,45.01
2023-06-27T07:49:59.810Z,44.77
2023-06-27T07:52:26.486Z,45.23
2023-06-27T07:54:53.355Z,44.55
2023-06-27T07:57:20.065Z,43.74
2023-06-27T07:59:46.813Z,43.29
2023-06-27T08:02:13.661Z,43.99
2023-06-27T08:04:40.409Z,43.00
2023-06-27T08:07:07.180Z,43.81
2023-06-27T08:09:33.858Z,45.58
2023-06-27T08:12:03.640Z,44.90
2023-06-27T08:14:30.939Z,44.11
2023-06-27T08:16:57.749Z,44.51
2023-06-27T08:19:24.481Z,45.00
2023-06-27T08:21:51.068Z,45.20
2023-06-27T08:24:17.644Z,46.27
2023-06-27T08:26:46.354Z,43.93
2023-06-27T08:29:13.124Z,43.78
2023-06-27T08:31:39.859Z,43.95
2023-06-27T08:34:06.565Z,43.97
2023-06-27T08:36:33.261Z,46.53
2023-06-27T08:38:59.927Z,44.24
2023-06-27T08:41:27.044Z,44.04
2023-06-27T08:43:55.490Z,44.22
2023-06-27T08:46:24.127Z,45.30
2023-06-27T08:48:54.232Z,44.59
2023-06-27T08:51:23.168Z,44.59
2023-06-27T08:53:53.538Z,46.48
2023-06-27T08:56:22.022Z,45.90
2023-06-27T08:58:54.744Z,44.78
2023-06-27T09:01:24.003Z,46.49
2023-06-27T09:03:51.086Z,44.24
2023-06-27T09:06:18.660Z,43.65
2023-06-27T09:08:45.409Z,42.80
2023-06-27T09:11:12.070Z,42.58
2023-06-27T09:13:39.154Z,42.25
2023-06-27T09:16:07.127Z,44.43
2023-06-27T09:18:37.137Z,43.82
2023-06-27T09:21:04.216Z,43.17
2023-06-27T09:23:34.678Z,44.37
2023-06-27T09:26:11.807Z,42.32
2023-06-27T09:28:52.297Z,38.42
2023-06-27T09:31:23.253Z,42.65
2023-06-27T09:33:52.661Z,42.55
2023-06-27T09:39:11.829Z,39.98
2023-06-27T09:41:43.750Z,37.61
2023-06-27T09:44:14.858Z,41.36
2023-06-27T09:46:43.560Z,41.05
2023-06-27T09:49:10.724Z,41.48
2023-06-27T09:51:38.085Z,39.80
2023-06-27T09:54:05.278Z,39.58
2023-06-27T09:56:33.402Z,38.25
2023-06-27T10:01:59.778Z,37.04
2023-06-27T10:06:56.087Z,35.86
2023-06-27T10:09:23.162Z,35.61
2023-06-27T10:11:50.609Z,35.99
2023-06-27T10:14:19.185Z,33.87
2023-06-27T10:16:47.044Z,34.11
2023-06-27T10:19:14.476Z,37.76
2023-06-27T10:21:41.878Z,35.01
2023-06-27T10:24:10.834Z,35.14
2023-06-27T10:26:37.584Z,38.54
2023-06-27T10:29:16.581Z,39.75
2023-06-27T10:31:46.936Z,38.35
2023-06-27T10:34:29.026Z,37.67
2023-06-27T10:36:55.652Z,38.74
2023-06-27T10:39:35.801Z,37.50
2023-06-27T10:42:17.254Z,36.42
2023-06-27T10:45:06.761Z,35.86
2023-06-27T10:47:46.065Z,35.22
2023-06-27T10:50:14.214Z,37.09
2023-06-27T10:52:59.288Z,36.11
2023-06-27T10:55:29.939Z,38.29
2023-06-27T10:58:11.818Z,39.27
2023-06-27T11:00:43.682Z,37.90
2023-06-27T11:03:10.952Z,36.03
2023-06-27T11:05:48.559Z,36.75
2023-06-27T11:08:16.446Z,36.22
2023-06-27T11:10:52.040Z,34.81
2023-06-27T11:13:23.684Z,35.70
2023-06-27T11:15:52.699Z,34.46
2023-06-27T11:18:20.565Z,32.28
2023-06-27T11:20:48.896Z,34.43
2023-06-27T11:23:16.292Z,33.28
2023-06-27T11:25:46.806Z,34.94
2023-06-27T11:28:16.850Z,35.40
2023-06-27T11:30:43.758Z,36.40
2023-06-27T11:33:13.309Z,37.46
2023-06-27T11:35:43.497Z,35.38
2023-06-27T11:38:10.842Z,36.67
2023-06-27T11:40:38.029Z,36.29
2023-06-27T11:43:07.197Z,36.69
2023-06-27T11:45:35.107Z,35.20
2023-06-27T11:48:03.563Z,35.14
2023-06-27T11:50:30.338Z,34.51
2023-06-27T11:52:58.584Z,34.05
2023-06-27T11:55:25.909Z,35.39
2023-06-27T11:57:57.066Z,34.19
2023-06-27T12:00:27.232Z,34.53
2023-06-27T12:02:56.319Z,33.26
2023-06-27T12:05:28.253Z,33.99
2023-06-27T12:07:58.574Z,33.56
2023-06-27T12:10:25.646Z,31.54
2023-06-27T12:12:52.678Z,32.30
2023-06-27T12:15:19.605Z,33.25
2023-06-27T12:18:00.267Z,33.92
2023-06-27T12:20:39.873Z,32.96
2023-06-27T12:23:06.954Z,34.10
2023-06-27T12:25:33.674Z,33.34
2023-06-27T12:28:00.329Z,35.05
2023-06-27T12:30:27.010Z,33.43
2023-06-27T12:32:53.668Z,33.07
2023-06-27T12:35:20.385Z,33.68
2023-06-27T12:37:46.960Z,31.15
2023-06-27T12:40:14.854Z,31.20
2023-06-27T12:42:43.913Z,31.07
2023-06-27T12:45:12.347Z,31.64
2023-06-27T12:47:44.693Z,31.67
2023-06-27T12:50:12.483Z,32.41
2023-06-27T12:52:39.214Z,33.19
2023-06-27T12:55:06.967Z,33.80
2023-06-27T12:57:34.087Z,32.87
2023-06-27T13:00:05.058Z,32.09
2023-06-27T13:02:35.176Z,33.35
2023-06-27T13:05:07.076Z,30.69
2023-06-27T13:07:34.692Z,30.49
2023-06-27T13:10:04.943Z,32.21
2023-06-27T13:12:31.592Z,33.26
2023-06-27T13:14:58.220Z,33.00
2023-06-27T13:17:24.965Z,33.72
2023-06-27T13:19:52.558Z,33.30
2023-06-27T13:22:19.224Z,33.70
2023-06-27T13:24:45.873Z,33.94
2023-06-27T13:27:12.500Z,34.45
2023-06-27T13:29:39.098Z,34.09
2023-06-27T13:32:05.949Z,33.47
2023-06-27T13:34:32.567Z,34.43
2023-06-27T13:36:59.740Z,36.20
2023-06-27T13:39:27.027Z,36.04
2023-06-27T13:41:53.628Z,36.57
2023-06-27T13:44:20.170Z,36.83
2023-06-27T13:46:46.761Z,36.35
2023-06-27T13:49:13.332Z,35.58
2023-06-27T13:51:40.419Z,36.71
2023-06-27T13:54:07.114Z,35.78
2023-06-27T13:56:36.930Z,35.56
2023-06-27T13:59:04.176Z,34.65
2023-06-27T14:01:30.753Z,34.92
2023-06-27T14:03:59.884Z,35.52
2023-06-27T14:06:27.277Z,34.91
2023-06-27T14:08:53.866Z,34.37
2023-06-27T14:11:20.481Z,34.64
2023-06-27T14:13:47.582Z,33.97
2023-06-27T14:16:14.250Z,34.19
2023-06-27T14:18:40.967Z,33.75
2023-06-27T14:21:10.190Z,32.79
2023-06-27T14:23:37.665Z,34.13
2023-06-27T14:26:05.855Z,33.96
2023-06-27T14:28:33.940Z,33.33
2023-06-27T14:31:01.834Z,32.85
2023-06-27T14:33:28.838Z,33.07
2023-06-27T14:35:56.187Z,33.49
2023-06-27T14:38:23.777Z,32.58
2023-06-27T14:40:50.904Z,33.12
2023-06-27T14:43:20.310Z,34.82
2023-06-27T14:45:47.678Z,33.82
2023-06-27T14:48:15.165Z,34.22
2023-06-27T14:50:43.191Z,34.13
2023-06-27T14:53:10.078Z,34.18
2023-06-27T14:55:36.798Z,34.12
2023-06-27T14:58:03.401Z,35.21
2023-06-27T15:00:31.022Z,35.64
2023-06-27T15:02:57.539Z,34.95
2023-06-27T15:05:24.556Z,33.97
2023-06-27T15:07:53.418Z,33.88
2023-06-27T15:10:21.255Z,32.51
2023-06-27T15:12:47.868Z,35.27
2023-06-27T15:15:15.017Z,34.16
2023-06-27T15:17:41.830Z,35.81
2023-06-27T15:20:09.022Z,36.83
2023-06-27T15:22:35.605Z,37.09
2023-06-27T15:25:02.374Z,36.78
2023-06-27T15:27:29.188Z,36.54
2023-06-27T15:29:55.794Z,35.85
2023-06-27T15:32:22.385Z,35.71
2023-06-27T15:34:49.018Z,35.81
2023-06-27T15:37:15.662Z,36.14
2023-06-27T15:39:42.353Z,35.82
2023-06-27T15:42:09.056Z,35.13
2023-06-27T15:44:37.254Z,35.68
2023-06-27T15:47:04.078Z,36.98
2023-06-27T15:49:30.702Z,35.79
2023-06-27T15:51:57.274Z,36.14
2023-06-27T15:54:23.852Z,36.83
2023-06-27T15:56:50.503Z,35.68
2023-06-27T15:59:17.182Z,36.31
2023-06-27T16:01:44.583Z,35.92
2023-06-27T16:04:11.605Z,36.76
2023-06-27T16:06:38.355Z,36.25
2023-06-27T16:09:05.711Z,36.54
2023-06-27T16:11:32.867Z,36.30
2023-06-27T16:14:00.628Z,36.19
2023-06-27T16:16:27.135Z,36.95
2023-06-27T16:18:54.023Z,36.21
2023-06-27T16:21:20.713Z,37.62
2023-06-27T16:23:47.366Z,39.73
2023-06-27T16:26:14.018Z,40.72
2023-06-27T16:28:41.501Z,41.70
2023-06-27T16:31:08.718Z,42.39
2023-06-27T16:33:35.671Z,42.73
2023-06-27T16:36:02.299Z,43.38
2023-06-27T16:38:29.032Z,43.63
2023-06-27T16:40:55.682Z,44.10
2023-06-27T16:43:22.345Z,43.61
2023-06-27T16:45:48.919Z,42.58
2023-06-27T16:48:15.658Z,42.49
2023-06-27T16:50:42.617Z,42.28
2023-06-27T16:53:09.393Z,44.26
2023-06-27T16:55:36.147Z,43.24
2023-06-27T16:58:02.847Z,43.44
2023-06-27T17:00:29.482Z,44.97
2023-06-27T17:02:56.351Z,43.94
2023-06-27T17:05:23.043Z,44.79
2023-06-27T17:07:49.865Z,45.29
2023-06-27T17:10:16.556Z,45.26
2023-06-27T17:12:43.123Z,45.56
2023-06-27T17:15:10.441Z,45.09
2023-06-27T17:17:37.356Z,44.67
2023-06-27T17:20:04.436Z,45.51
2023-06-27T17:22:32.234Z,45.01
2023-06-27T17:24:58.837Z,44.34
2023-06-27T17:27:25.602Z,45.32
2023-06-27T17:29:52.393Z,45.69
2023-06-27T17:32:22.391Z,45.20
2023-06-27T17:34:49.182Z,45.47
2023-06-27T17:37:15.909Z,45.24
2023-06-27T17:39:42.608Z,45.50
2023-06-27T17:42:11.135Z,45.38
2023-06-27T17:44:37.703Z,45.47
2023-06-27T17:47:04.551Z,45.55
2023-06-27T17:49:31.177Z,45.77
2023-06-27T17:51:57.817Z,45.20
2023-06-27T17:54:25.622Z,45.25
2023-06-27T17:56:52.257Z,45.11
2023-06-27T17:59:18.967Z,44.73
2023-06-27T18:01:46.232Z,45.18
2023-06-27T18:04:12.952Z,45.18
2023-06-27T18:06:39.937Z,45.14
2023-06-27T18:09:06.580Z,44.81
2023-06-27T18:11:33.483Z,45.36
2023-06-27T18:14:00.077Z,45.68
2023-06-27T18:16:26.717Z,45.62
2023-06-27T18:18:53.293Z,45.79
2023-06-27T18:21:19.917Z,45.44
2023-06-27T18:23:46.626Z,45.47
2023-06-27T18:26:13.740Z,45.44
2023-06-27T18:28:40.403Z,44.57
2023-06-27T18:31:07.083Z,44.65
2023-06-27T18:33:34.450Z,44.62
2023-06-27T18:36:02.615Z,44.63
2023-06-27T18:38:29.378Z,44.58
2023-06-27T18:40:55.969Z,44.90
2023-06-27T18:43:22.664Z,44.79
2023-06-27T18:45:49.292Z,44.66
2023-06-27T18:48:16.188Z,44.85
2023-06-27T18:50:43.038Z,45.41
2023-06-27T18:53:09.873Z,45.84
2023-06-27T18:55:36.462Z,45.87
2023-06-27T18:58:03.130Z,45.94
2023-06-27T19:00:29.704Z,45.41
2023-06-27T19:02:56.365Z,45.93
2023-06-27T19:05:22.968Z,46.46
2023-06-27T19:07:49.738Z,46.82
2023-06-27T19:10:16.498Z,47.53
2023-06-27T19:12:43.142Z,49.78
2023-06-27T19:15:10.171Z,51.77
2023-06-27T19:17:36.881Z,52.76
2023-06-27T19:20:04.300Z,54.29
2023-06-27T19:22:31.288Z,55.96
2023-06-27T19:24:57.871Z,55.33
2023-06-27T19:27:24.515Z,57.43
2023-06-27T19:29:51.160Z,61.84
2023-06-27T19:32:17.772Z,63.34
2023-06-27T19:34:44.364Z,63.65
2023-06-27T19:37:11.072Z,62.24
2023-06-27T19:39:37.690Z,62.34
2023-06-27T19:42:04.745Z,61.46
2023-06-27T19:44:31.346Z,63.38
2023-06-27T19:46:58.187Z,62.42
2023-06-27T19:49:24.808Z,63.40
2023-06-27T19:51:51.621Z,63.20
2023-06-27T19:54:18.351Z,63.75
2023-06-27T19:56:45.116Z,63.85
2023-06-27T19:59:11.755Z,63.74
2023-06-27T20:01:38.409Z,65.19
2023-06-27T20:04:05.154Z,65.73
2023-06-27T20:06:31.842Z,65.61
2023-06-27T20:08:58.496Z,65.87
2023-06-27T20:11:25.274Z,66.12
2023-06-27T20:13:51.909Z,65.12
2023-06-27T20:16:18.649Z,64.94
2023-06-27T20:18:46.364Z,64.85
2023-06-27T20:21:13.356Z,65.10
2023-06-27T20:23:39.980Z,64.74
2023-06-27T20:26:06.641Z,64.14
2023-06-27T20:28:33.232Z,63.77
2023-06-27T20:31:02.329Z,64.12
2023-06-27T20:33:29.115Z,64.55
2023-06-27T20:35:55.769Z,64.38
2023-06-27T20:38:22.491Z,63.49
2023-06-27T20:40:49.357Z,62.84
2023-06-27T20:43:15.997Z,62.66
2023-06-27T20:45:42.681Z,62.63
2023-06-27T20:48:09.500Z,61.57
2023-06-27T20:50:36.609Z,62.27
2023-06-27T20:53:03.207Z,62.61
2023-06-27T20:55:29.909Z,62.36
2023-06-27T20:57:56.573Z,62.63
2023-06-27T21:00:23.382Z,62.89
2023-06-27T21:02:50.542Z,63.46
2023-06-27T21:05:17.225Z,64.23
2023-06-27T21:07:43.818Z,64.52
2023-06-27T21:10:10.798Z,64.75
2023-06-27T21:12:38.093Z,64.49
2023-06-27T21:15:06.314Z,64.74
2023-06-27T21:17:33.025Z,64.49
2023-06-27T21:19:59.780Z,64.58
2023-06-27T21:22:26.407Z,64.26
2023-06-27T21:24:53.013Z,64.45
2023-06-27T21:27:19.605Z,63.49
2023-06-27T21:29:46.310Z,63.81
2023-06-27T21:32:13.103Z,66.42
2023-06-27T21:34:39.742Z,69.57
2023-06-27T21:37:06.642Z,74.23
2023-06-27T21:39:33.267Z,77.90
2023-06-27T21:41:59.896Z,78.38
2023-06-27T21:44:26.642Z,78.74
2023-06-27T21:46:53.639Z,82.04
2023-06-27T21:49:20.267Z,82.36
2023-06-27T21:51:46.886Z,81.82
2023-06-27T21:54:13.578Z,81.49
2023-06-27T21:56:40.273Z,82.71
2023-06-27T21:59:07.137Z,83.05
2023-06-27T22:01:34.056Z,83.15
2023-06-27T22:04:01.067Z,82.07
2023-06-27T22:06:42.137Z,82.12
2023-06-27T22:09:10.394Z,80.14
2023-06-27T22:11:37.006Z,79.41
2023-06-27T22:14:03.749Z,78.37
2023-06-27T22:16:30.443Z,79.03
2023-06-27T22:18:57.033Z,78.56
2023-06-27T22:21:23.654Z,79.32
2023-06-27T22:23:53.010Z,77.96
2023-06-27T22:26:19.672Z,76.84
2023-06-27T22:28:46.392Z,75.02
2023-06-27T22:31:13.110Z,74.39
2023-06-27T22:33:39.783Z,74.55
2023-06-27T22:36:07.665Z,74.91
2023-06-27T22:38:34.764Z,73.95
2023-06-27T22:41:01.958Z,74.25
2023-06-27T22:43:28.649Z,74.87
2023-06-27T22:45:55.304Z,74.84
2023-06-27T22:48:21.984Z,76.15
2023-06-27T22:50:48.640Z,77.10
2023-06-27T22:53:15.200Z,77.61
2023-06-27T22:55:41.827Z,78.25
2023-06-27T22:58:08.501Z,78.38
2023-06-27T23:00:35.238Z,78.52
2023-06-27T23:03:02.345Z,78.26
2023-06-27T23:05:29.009Z,78.44
2023-06-27T23:07:55.675Z,78.15
2023-06-27T23:10:22.783Z,77.50
2023-06-27T23:12:49.505Z,77.77
2023-06-27T23:15:16.451Z,77.31
2023-06-27T23:17:43.126Z,77.26
2023-06-27T23:20:11.217Z,76.75
2023-06-27T23:22:38.208Z,77.03
2023-06-27T23:25:06.927Z,76.96
2023-06-27T23:27:36.625Z,77.34
2023-06-27T23:30:05.105Z,77.38
2023-06-27T23:32:32.017Z,77.08
2023-06-27T23:35:01.526Z,76.66
2023-06-27T23:37:28.655Z,77.04
2023-06-27T23:39:55.339Z,75.42
2023-06-27T23:42:21.955Z,75.89
2023-06-27T23:44:48.731Z,75.76
2023-06-27T23:47:16.819Z,75.79
2023-06-27T23:49:43.564Z,75.31
2023-06-27T23:52:10.197Z,74.76
2023-06-27T23:54:36.773Z,74.95
2023-06-27T23:57:03.562Z,74.79
2023-06-27T23:59:30.185Z,74.68
